Time;durP1;ratioP1;P1;durP2;ratioP2;P2;SDS_P1;SDS_P2;PMS_P1;PMS_P2;Temp;Humidity;BMP_temperature;BMP_pressure;BME280_temperature;BME280_humidity;BME280_pressure;Samples;Min_cycle;Max_cycle;Signal;HPM_P1;HPM_P2
2023/10/17 00:00:28;;;;;;;7.47;6.22;;;6.30;76.40;;;;;;4983265;28;20042;-63
2023/10/17 00:02:54;;;;;;;8.82;6.65;;;6.30;76.50;;;;;;4984791;28;20046;-64
2023/10/17 00:05:21;;;;;;;10.10;6.28;;;6.20;76.40;;;;;;4985220;28;20034;-63
2023/10/17 00:07:46;;;;;;;8.38;6.65;;;6.20;77.20;;;;;;4985452;28;20060;-63
2023/10/17 00:10:18;;;;;;;7.25;6.10;;;6.20;76.20;;;;;;4984399;28;20053;-62
2023/10/17 00:12:53;;;;;;;8.57;6.75;;;6.20;76.20;;;;;;4981973;28;20118;-62
2023/10/17 00:15:29;;;;;;;8.13;6.20;;;6.10;76.40;;;;;;4984791;28;20038;-63
2023/10/17 00:18:04;;;;;;;9.02;6.28;;;6.10;76.50;;;;;;4984856;28;20069;-64
2023/10/17 00:20:37;;;;;;;7.60;6.40;;;6.10;76.70;;;;;;4984302;28;20518;-63
2023/10/17 00:23:04;;;;;;;7.30;5.72;;;6.10;76.70;;;;;;4985492;28;20038;-63
2023/10/17 00:25:30;;;;;;;10.85;6.30;;;6.10;76.80;;;;;;4984971;28;20109;-62
2023/10/17 00:27:57;;;;;;;7.93;6.07;;;6.10;77.00;;;;;;4985697;28;20129;-63
2023/10/17 00:30:23;;;;;;;8.07;6.15;;;6.10;77.10;;;;;;4984746;28;20449;-63
2023/10/17 00:32:50;;;;;;;10.30;6.57;;;6.10;77.00;;;;;;4986517;28;20347;-63
2023/10/17 00:35:18;;;;;;;8.27;6.50;;;6.10;77.10;;;;;;4988251;28;20047;-64
2023/10/17 00:37:52;;;;;;;9.02;6.65;;;6.10;77.10;;;;;;4988561;28;20596;-63
2023/10/17 00:43:05;;;;;;;9.55;6.30;;;6.10;77.00;;;;;;4987359;28;20525;-63
2023/10/17 00:45:34;;;;;;;10.23;6.97;;;6.10;76.90;;;;;;4987661;28;20369;-63
2023/10/17 00:48:02;;;;;;;7.82;6.30;;;6.10;77.10;;;;;;4988427;28;20168;-63
2023/10/17 00:50:29;;;;;;;9.13;6.47;;;6.00;77.30;;;;;;4987975;28;20125;-63
2023/10/17 00:52:56;;;;;;;7.80;6.30;;;6.00;77.10;;;;;;4988052;28;20042;-64
2023/10/17 00:55:26;;;;;;;9.98;6.65;;;6.00;77.10;;;;;;4988193;28;20034;-63
2023/10/17 00:57:53;;;;;;;8.43;6.43;;;6.10;77.20;;;;;;4988119;28;20100;-62
2023/10/17 01:00:36;;;;;;;7.03;5.95;;;6.10;77.10;;;;;;4985816;28;20057;-61
2023/10/17 01:03:10;;;;;;;7.93;6.13;;;6.00;77.10;;;;;;4987731;28;20133;-64
2023/10/17 01:08:47;;;;;;;8.50;6.03;;;6.00;77.20;;;;;;4988766;28;20065;-62
2023/10/17 01:11:20;;;;;;;7.63;6.20;;;6.00;76.70;;;;;;4986315;28;20493;-63
2023/10/17 01:13:47;;;;;;;8.82;6.30;;;5.90;77.40;;;;;;4987820;28;20073;-63
2023/10/17 01:16:16;;;;;;;7.78;6.13;;;5.90;76.60;;;;;;4987293;28;20576;-63
2023/10/17 01:18:44;;;;;;;8.48;6.18;;;5.90;76.40;;;;;;4987725;28;20034;-64
2023/10/17 01:21:20;;;;;;;8.80;6.85;;;5.90;76.50;;;;;;4987670;28;20026;-64
2023/10/17 01:23:47;;;;;;;10.00;6.47;;;5.80;76.60;;;;;;4988290;28;20034;-64
2023/10/17 01:26:20;;;;;;;10.15;6.68;;;5.80;76.50;;;;;;4987421;28;20379;-63
2023/10/17 01:28:47;;;;;;;7.22;6.30;;;5.80;76.50;;;;;;4986720;28;20422;-63
2023/10/17 01:31:14;;;;;;;7.28;5.97;;;5.70;76.50;;;;;;4987462;28;20072;-63
2023/10/17 01:33:43;;;;;;;8.55;6.07;;;5.70;76.60;;;;;;4986523;28;20026;-63
2023/10/17 01:36:16;;;;;;;8.02;6.10;;;5.60;76.40;;;;;;4986653;28;20034;-64
2023/10/17 01:38:42;;;;;;;7.88;6.40;;;5.60;76.40;;;;;;4987595;28;20485;-63
2023/10/17 01:41:10;;;;;;;10.45;6.25;;;5.50;76.20;;;;;;4986982;28;20658;-64
2023/10/17 01:43:45;;;;;;;9.00;6.25;;;5.40;76.20;;;;;;4985402;28;20490;-63
2023/10/17 01:46:15;;;;;;;7.70;6.18;;;5.30;76.40;;;;;;4986755;28;20045;-63
2023/10/17 01:48:48;;;;;;;9.95;6.13;;;5.30;76.60;;;;;;4986815;28;20026;-64
2023/10/17 01:51:15;;;;;;;9.93;6.55;;;5.20;76.70;;;;;;4987101;28;20054;-63
2023/10/17 01:53:42;;;;;;;7.82;6.40;;;5.10;76.70;;;;;;4986665;28;20540;-63
2023/10/17 01:56:13;;;;;;;10.80;7.72;;;5.10;77.00;;;;;;4987357;28;20035;-64
2023/10/17 01:58:50;;;;;;;11.80;7.47;;;5.00;77.20;;;;;;4986023;28;20051;-64
2023/10/17 02:01:24;;;;;;;13.10;7.43;;;5.00;77.40;;;;;;4987000;28;20041;-64
2023/10/17 02:03:58;;;;;;;10.80;7.65;;;5.00;77.60;;;;;;4987340;28;20066;-64
2023/10/17 02:06:24;;;;;;;10.32;6.93;;;4.80;77.60;;;;;;4986042;28;20080;-61
2023/10/17 02:08:50;;;;;;;9.40;7.30;;;5.00;77.90;;;;;;4986663;28;20030;-63
2023/10/17 02:11:25;;;;;;;9.75;7.05;;;5.00;77.80;;;;;;4983709;28;20039;-63
2023/10/17 02:13:52;;;;;;;8.57;7.10;;;4.90;77.60;;;;;;4986459;28;20038;-63
2023/10/17 02:16:17;;;;;;;9.30;6.95;;;4.90;77.60;;;;;;4985449;28;20035;-63
2023/10/17 02:18:44;;;;;;;10.52;6.97;;;4.90;77.60;;;;;;4986490;28;20410;-64
2023/10/17 02:21:12;;;;;;;7.75;6.03;;;4.90;77.80;;;;;;4987118;28;20033;-62
2023/10/17 02:23:43;;;;;;;9.38;7.18;;;4.80;77.80;;;;;;4986181;28;20564;-63
2023/10/17 02:26:11;;;;;;;8.80;6.97;;;4.80;77.90;;;;;;4986390;28;20145;-63
2023/10/17 02:28:46;;;;;;;8.52;6.97;;;4.80;78.20;;;;;;4984896;28;20058;-63
2023/10/17 02:31:13;;;;;;;;;;;4.80;78.30;;;;;;4986325;28;20030;-63
2023/10/17 02:33:42;;;;;;;9.27;6.28;;;4.90;79.20;;;;;;4985836;28;19917;-63
2023/10/17 02:36:12;;;;;;;9.75;7.32;;;4.90;78.00;;;;;;4985320;28;20065;-63
2023/10/17 02:38:41;;;;;;;8.65;7.20;;;4.90;78.20;;;;;;4985837;28;20038;-63
2023/10/17 02:41:18;;;;;;;9.68;7.93;;;4.90;78.60;;;;;;4986065;28;20517;-63
2023/10/17 02:43:45;;;;;;;10.15;7.60;;;4.90;78.90;;;;;;4985618;28;20034;-63
2023/10/17 02:46:14;;;;;;;11.75;8.05;;;4.90;78.90;;;;;;4985383;28;20034;-64
2023/10/17 02:48:42;;;;;;;10.10;8.00;;;4.90;79.00;;;;;;4986240;28;20063;-61
2023/10/17 02:51:18;;;;;;;10.55;7.85;;;5.00;79.20;;;;;;4985867;28;20088;-63
2023/10/17 02:53:43;;;;;;;9.57;7.65;;;5.00;79.00;;;;;;4986156;28;20542;-63
2023/10/17 02:56:18;;;;;;;10.10;8.00;;;5.00;79.00;;;;;;4984964;28;20081;-63
2023/10/17 02:59:04;;;;;;;11.27;7.72;;;5.00;79.00;;;;;;4985141;28;20117;-64
2023/10/17 03:01:31;;;;;;;10.38;7.25;;;5.00;79.00;;;;;;4985797;28;20039;-63
2023/10/17 03:04:10;;;;;;;10.90;7.88;;;5.00;78.80;;;;;;4985782;28;20039;-63
2023/10/17 03:06:46;;;;;;;10.40;7.80;;;5.00;78.90;;;;;;4985278;28;20041;-63
2023/10/17 03:09:16;;;;;;;9.57;7.28;;;5.00;78.80;;;;;;4985370;28;20442;-63
2023/10/17 03:11:50;;;;;;;9.95;7.85;;;5.00;78.70;;;;;;4982867;28;20038;-63
2023/10/17 03:14:19;;;;;;;10.13;7.47;;;5.00;78.80;;;;;;4984722;28;20038;-64
2023/10/17 03:16:54;;;;;;;8.65;7.43;;;5.00;78.60;;;;;;4985308;28;20046;-64
2023/10/17 03:19:27;;;;;;;10.48;8.00;;;5.00;78.80;;;;;;4985450;28;20042;-63
2023/10/17 03:21:58;;;;;;;12.18;8.38;;;5.00;78.60;;;;;;4986101;28;20034;-64
2023/10/17 03:24:39;;;;;;;9.68;7.88;;;5.00;78.70;;;;;;4986151;28;20030;-64
2023/10/17 03:27:07;;;;;;;9.73;7.97;;;5.00;78.60;;;;;;4984454;28;20042;-62
2023/10/17 03:29:36;;;;;;;10.80;7.65;;;5.10;78.50;;;;;;4985338;28;20553;-62
2023/10/17 03:32:03;;;;;;;9.80;8.02;;;5.10;78.50;;;;;;4985877;28;20045;-63
2023/10/17 03:34:35;;;;;;;10.45;7.85;;;5.00;78.20;;;;;;4984305;28;20035;-64
2023/10/17 03:37:26;;;;;;;10.35;7.45;;;5.00;78.10;;;;;;4986053;28;20402;-63
2023/10/17 03:39:59;;;;;;;11.35;7.30;;;5.00;78.10;;;;;;4986242;28;20490;-63
2023/10/17 03:45:23;;;;;;;11.20;8.02;;;4.90;78.10;;;;;;4986002;28;20038;-64
2023/10/17 03:47:57;;;;;;;11.95;8.23;;;4.90;78.50;;;;;;4985877;28;20093;-64
2023/10/17 03:53:15;;;;;;;10.85;8.15;;;4.80;79.00;;;;;;4984050;28;20676;-63
2023/10/17 03:55:42;;;;;;;10.98;8.38;;;4.80;79.20;;;;;;4985655;28;20409;-63
2023/10/17 03:58:49;;;;;;;10.00;7.97;;;4.80;79.30;;;;;;4985039;28;20038;-63
2023/10/17 04:01:00;;;;;;;11.82;8.10;;;4.80;79.50;;;;;;4983449;28;20050;-63
2023/10/17 04:03:35;;;;;;;9.98;8.00;;;4.80;79.40;;;;;;4984809;28;20077;-61
2023/10/17 04:06:13;;;;;;;10.30;7.93;;;4.80;79.50;;;;;;4986565;28;20038;-64
2023/10/17 04:09:00;;;;;;;10.55;7.93;;;4.80;79.50;;;;;;4989397;28;20061;-63
2023/10/17 04:11:26;;;;;;;11.68;9.10;;;4.90;80.30;;;;;;4986408;28;20047;-63
2023/10/17 04:14:01;;;;;;;12.65;9.35;;;4.90;79.50;;;;;;4988034;28;20047;-63
2023/10/17 04:16:33;;;;;;;11.57;8.90;;;4.80;79.70;;;;;;4988252;28;20122;-62
2023/10/17 04:19:07;;;;;;;10.93;9.15;;;4.80;79.60;;;;;;4988359;28;20093;-64
2023/10/17 04:21:45;;;;;;;11.82;8.45;;;4.90;79.80;;;;;;4989015;28;20512;-63
2023/10/17 04:24:13;;;;;;;12.48;8.63;;;4.90;80.50;;;;;;4988355;28;20042;-62
2023/10/17 04:26:45;;;;;;;10.07;8.00;;;4.90;79.80;;;;;;4987593;28;20418;-63
2023/10/17 04:29:18;;;;;;;11.93;8.55;;;4.90;80.00;;;;;;4988122;28;20120;-63
2023/10/17 04:31:45;;;;;;;10.65;8.10;;;4.90;80.00;;;;;;4988480;28;20061;-64
2023/10/17 04:34:26;;;;;;;10.88;8.27;;;5.00;80.10;;;;;;4988594;28;20584;-64
2023/10/17 04:36:53;;;;;;;10.57;8.20;;;5.00;81.10;;;;;;4988737;28;20050;-62
2023/10/17 04:39:19;;;;;;;10.45;8.48;;;5.00;80.20;;;;;;4988968;28;20088;-64
2023/10/17 04:44:25;;;;;;;12.00;8.25;;;5.00;80.40;;;;;;4988971;28;20106;-63
2023/10/17 04:49:36;;;;;;;10.20;8.52;;;5.00;80.10;;;;;;4988974;28;20125;-63
2023/10/17 04:52:08;;;;;;;14.15;8.70;;;5.00;80.20;;;;;;4988871;28;20499;-63
2023/10/17 04:57:06;;;;;;;11.48;8.32;;;5.10;80.00;;;;;;4988043;28;20038;-64
2023/10/17 06:18:49;;;;;;;19.98;11.50;;;5.30;80.90;;;;;;4987111;28;20405;-64
2023/10/17 06:24:06;;;;;;;18.70;11.07;;;5.30;81.20;;;;;;4987384;28;20413;-63
2023/10/17 06:34:14;;;;;;;23.90;11.80;;;5.30;81.30;;;;;;4986820;28;20530;-64
2023/10/17 06:36:41;;;;;;;51.20;12.45;;;5.30;81.20;;;;;;4986480;28;20577;-64
2023/10/17 06:39:16;;;;;;;30.60;12.02;;;5.30;81.30;;;;;;4986801;28;20041;-64
2023/10/17 06:41:41;;;;;;;29.60;12.77;;;5.20;81.20;;;;;;4987082;28;20043;-64
2023/10/17 06:44:10;;;;;;;23.67;12.13;;;5.20;81.30;;;;;;4987043;28;20045;-64
2023/10/17 06:54:52;;;;;;;20.23;11.35;;;5.00;81.80;;;;;;4986418;28;20035;-64
2023/10/17 06:57:19;;;;;;;20.05;11.15;;;5.00;82.00;;;;;;4986598;28;20532;-64
2023/10/17 06:59:53;;;;;;;29.60;11.27;;;4.90;82.10;;;;;;4985637;28;20141;-64
2023/10/17 07:02:27;;;;;;;20.75;11.35;;;4.90;82.70;;;;;;4986752;28;20035;-64
2023/10/17 07:04:55;;;;;;;;;;;4.90;82.60;;;;;;4986675;28;20031;-64
2023/10/17 07:07:22;;;;;;;21.52;10.48;;;4.90;83.60;;;;;;4986567;28;20340;-64
2023/10/17 07:10:16;;;;;;;20.35;11.10;;;4.90;82.20;;;;;;4986514;28;20553;-65
2023/10/17 07:12:40;;;;;;;19.88;11.40;;;4.90;82.40;;;;;;4984681;28;20042;-64
2023/10/17 07:15:13;;;;;;;23.77;10.82;;;4.90;82.50;;;;;;4986449;28;20030;-64
2023/10/17 07:17:49;;;;;;;21.92;11.00;;;4.90;82.70;;;;;;4986625;28;20030;-64
2023/10/17 07:23:11;;;;;;;17.95;10.80;;;5.00;83.00;;;;;;4986055;28;20093;-64
2023/10/17 07:25:38;;;;;;;16.10;10.82;;;5.00;83.00;;;;;;4986773;28;20073;-64
2023/10/17 07:28:04;;;;;;;18.05;10.70;;;5.00;83.10;;;;;;4986420;28;20040;-64
2023/10/17 07:30:40;;;;;;;20.23;11.88;;;5.00;83.20;;;;;;4986010;28;20136;-64
2023/10/17 07:33:08;;;;;;;21.52;11.25;;;5.00;83.20;;;;;;4986261;28;20105;-64
2023/10/17 07:35:36;;;;;;;28.33;12.30;;;5.10;83.20;;;;;;4986447;28;20077;-64
2023/10/17 07:38:04;;;;;;;24.85;11.68;;;5.10;83.20;;;;;;4985781;28;20034;-64
2023/10/17 07:43:07;;;;;;;21.60;10.85;;;5.20;83.20;;;;;;4989959;28;20027;-64
2023/10/17 07:45:38;;;;;;;28.55;11.02;;;5.20;83.00;;;;;;4989970;28;20026;-64
2023/10/17 07:48:19;;;;;;;52.55;12.18;;;5.20;82.90;;;;;;4989795;28;20504;-64
2023/10/17 07:50:46;;;;;;;27.85;11.48;;;5.30;82.80;;;;;;4989766;28;20497;-65
2023/10/17 07:53:11;;;;;;;21.58;11.27;;;5.30;82.60;;;;;;4989367;28;20039;-64
2023/10/17 07:55:38;;;;;;;17.45;10.88;;;5.30;82.70;;;;;;4990248;28;20040;-65
2023/10/17 07:58:07;;;;;;;18.55;10.75;;;5.30;83.00;;;;;;4989743;28;20053;-64
2023/10/17 08:00:33;;;;;;;20.17;11.00;;;5.30;83.00;;;;;;4986498;28;20065;-64
2023/10/17 08:03:20;;;;;;;18.70;11.50;;;5.40;83.00;;;;;;4987851;28;20522;-64
2023/10/17 08:05:58;;;;;;;17.17;11.43;;;5.40;83.70;;;;;;4990814;28;20049;-64
2023/10/17 08:08:26;;;;;;;19.15;12.45;;;5.50;84.00;;;;;;4991455;28;20395;-65
2023/10/17 08:10:52;;;;;;;19.70;12.27;;;5.50;83.40;;;;;;4989452;28;20563;-65
2023/10/17 08:13:19;;;;;;;16.30;11.20;;;5.50;83.30;;;;;;4990664;28;20038;-64
2023/10/17 08:15:53;;;;;;;21.40;11.90;;;5.60;83.20;;;;;;4991318;28;20045;-64
2023/10/17 08:18:22;;;;;;;17.52;10.93;;;5.60;83.00;;;;;;4990464;28;20114;-64
2023/10/17 08:23:26;;;;;;;19.15;11.57;;;5.60;82.80;;;;;;4990545;28;20026;-64
2023/10/17 08:26:03;;;;;;;18.40;11.73;;;5.70;82.90;;;;;;4991155;28;20406;-64
2023/10/17 08:31:20;;;;;;;24.02;11.68;;;5.70;83.00;;;;;;4990665;28;20070;-65
2023/10/17 08:33:51;;;;;;;57.20;12.93;;;5.70;83.10;;;;;;4990444;28;20038;-64
2023/10/17 08:36:16;;;;;;;25.30;12.35;;;5.70;83.00;;;;;;4990408;28;20109;-64
2023/10/17 08:38:42;;;;;;;33.10;12.70;;;5.70;83.70;;;;;;4989538;28;20648;-64
2023/10/17 08:41:07;;;;;;;27.15;11.98;;;5.70;83.10;;;;;;4989167;28;20413;-64
2023/10/17 08:43:36;;;;;;;20.17;12.40;;;5.70;83.20;;;;;;4989825;28;20038;-64
2023/10/17 08:46:07;;;;;;;18.52;12.02;;;5.70;83.20;;;;;;4990360;28;20039;-64
2023/10/17 08:48:34;;;;;;;17.48;11.75;;;5.70;83.50;;;;;;4989979;28;20027;-65
2023/10/17 08:51:00;;;;;;;20.13;12.38;;;5.70;83.70;;;;;;4990218;28;20049;-64
2023/10/17 08:53:30;;;;;;;19.75;12.15;;;5.80;83.90;;;;;;4988645;28;20518;-64
2023/10/17 08:55:55;;;;;;;23.17;11.45;;;5.80;83.90;;;;;;4989780;28;20042;-64
2023/10/17 08:58:33;;;;;;;16.52;11.35;;;5.90;84.00;;;;;;4990290;28;20088;-64
2023/10/17 09:01:10;;;;;;;18.50;11.82;;;6.00;83.90;;;;;;4987654;28;20031;-64
2023/10/17 09:03:40;;;;;;;16.80;11.23;;;6.00;83.80;;;;;;4989725;28;20026;-65
2023/10/17 09:08:52;;;;;;;31.20;14.25;;;6.20;83.80;;;;;;4989273;28;20042;-65
2023/10/17 09:11:29;;;;;;;22.52;12.05;;;6.20;83.40;;;;;;4987463;28;20526;-65
2023/10/17 09:16:42;;;;;;;36.92;13.38;;;6.20;83.00;;;;;;4989666;28;20061;-65
2023/10/17 09:19:14;;;;;;;24.50;13.43;;;6.20;83.00;;;;;;4989920;28;20030;-65
2023/10/17 09:21:45;;;;;;;20.88;12.32;;;6.20;83.10;;;;;;4989900;28;20034;-64
2023/10/17 09:24:37;;;;;;;18.50;12.20;;;6.20;83.50;;;;;;4989619;28;20053;-64
2023/10/17 09:27:09;;;;;;;17.25;12.43;;;6.20;84.00;;;;;;4989250;28;20034;-64
2023/10/17 09:29:59;;;;;;;39.95;13.45;;;6.10;83.60;;;;;;4989014;28;20043;-65
2023/10/17 09:32:35;;;;;;;27.25;12.90;;;6.20;84.10;;;;;;4989250;28;20038;-65
2023/10/17 09:35:13;;;;;;;21.95;12.38;;;6.20;83.80;;;;;;4988548;28;20289;-64
2023/10/17 09:37:50;;;;;;;37.17;13.88;;;6.30;84.10;;;;;;4989403;28;20030;-64
2023/10/17 09:40:33;;;;;;;19.52;12.82;;;6.30;84.20;;;;;;4988591;28;20034;-64
2023/10/17 09:43:00;;;;;;;26.02;14.15;;;6.40;83.80;;;;;;4988691;28;20038;-64
2023/10/17 09:45:33;;;;;;;20.00;12.70;;;6.40;83.90;;;;;;4988928;28;20085;-64
2023/10/17 09:48:04;;;;;;;23.63;13.70;;;6.40;84.00;;;;;;4988269;28;20039;-64
2023/10/17 09:50:33;;;;;;;21.55;13.25;;;6.50;84.10;;;;;;4988532;28;20142;-64
2023/10/17 09:53:01;;;;;;;22.75;13.43;;;6.50;84.00;;;;;;4987569;28;20097;-64
2023/10/17 09:55:28;;;;;;;20.23;13.57;;;6.50;83.70;;;;;;4989181;28;20034;-64
2023/10/17 09:58:02;;;;;;;18.45;13.23;;;6.60;83.70;;;;;;4988368;28;20050;-64
2023/10/17 10:00:34;;;;;;;23.63;14.63;;;6.70;83.80;;;;;;4986771;28;20027;-65
2023/10/17 10:03:00;;;;;;;19.52;13.27;;;6.70;83.80;;;;;;4987717;28;20037;-64
2023/10/17 10:05:29;;;;;;;20.17;13.57;;;6.80;83.30;;;;;;4988454;28;20030;-65
2023/10/17 10:08:01;;;;;;;20.73;14.27;;;6.80;83.40;;;;;;4989183;28;20038;-64
2023/10/17 10:10:44;;;;;;;19.60;13.80;;;6.80;83.40;;;;;;4986443;28;20045;-65
2023/10/17 10:13:13;;;;;;;17.88;12.77;;;6.80;84.00;;;;;;4988732;28;20037;-64
2023/10/17 10:15:51;;;;;;;19.17;13.32;;;6.90;83.60;;;;;;4988316;28;20052;-64
2023/10/17 10:18:38;;;;;;;19.08;12.70;;;6.90;84.00;;;;;;4988281;28;20117;-64
2023/10/17 10:21:05;;;;;;;20.88;14.05;;;6.90;83.80;;;;;;4987772;28;20037;-64
2023/10/17 10:23:41;;;;;;;21.73;14.18;;;7.00;83.80;;;;;;4989076;28;20295;-64
2023/10/17 10:26:14;;;;;;;20.52;14.10;;;7.00;83.50;;;;;;4988333;28;20038;-65
2023/10/17 10:28:43;;;;;;;20.45;13.50;;;7.00;83.20;;;;;;4988366;28;20030;-64
2023/10/17 10:31:27;;;;;;;17.75;12.23;;;7.00;83.10;;;;;;4988187;28;20510;-64
2023/10/17 10:33:53;;;;;;;17.15;12.00;;;7.10;83.60;;;;;;4988275;28;20101;-64
2023/10/17 10:36:24;;;;;;;16.95;12.07;;;7.10;83.60;;;;;;4987971;28;20037;-65
2023/10/17 10:38:54;;;;;;;20.83;13.40;;;7.10;83.70;;;;;;4987689;28;20100;-65
2023/10/17 10:41:23;;;;;;;23.10;13.32;;;7.20;84.60;;;;;;4988116;28;20121;-65
2023/10/17 10:43:57;;;;;;;20.23;13.45;;;7.30;83.70;;;;;;4988047;28;20034;-64
2023/10/17 10:46:22;;;;;;;19.65;13.10;;;7.30;83.50;;;;;;4988151;28;20050;-64
2023/10/17 10:48:51;;;;;;;18.25;13.05;;;7.40;83.30;;;;;;4987883;28;20065;-64
2023/10/17 10:51:17;;;;;;;21.77;12.88;;;7.50;83.10;;;;;;4987745;28;20127;-64
2023/10/17 10:53:46;;;;;;;20.48;13.98;;;7.50;83.10;;;;;;4987623;28;20027;-64
2023/10/17 10:56:13;;;;;;;22.67;15.43;;;7.60;83.10;;;;;;4987772;28;20535;-64
2023/10/17 10:58:47;;;;;;;21.40;14.52;;;7.60;83.10;;;;;;4987246;28;20452;-65
2023/10/17 11:01:14;;;;;;;19.75;14.40;;;7.70;83.10;;;;;;4986492;28;20038;-65
2023/10/17 11:03:46;;;;;;;19.85;13.90;;;7.70;83.00;;;;;;4987382;28;20030;-64
2023/10/17 11:06:13;;;;;;;19.95;13.77;;;7.80;83.10;;;;;;4987907;28;20516;-64
2023/10/17 11:08:45;;;;;;;17.50;13.57;;;7.80;83.10;;;;;;4987544;28;20069;-64
2023/10/17 11:11:11;;;;;;;18.00;12.98;;;7.90;83.10;;;;;;4985897;28;20035;-64
2023/10/17 11:13:56;;;;;;;17.60;12.95;;;8.00;83.80;;;;;;4987597;28;20062;-65
2023/10/17 11:16:24;;;;;;;;;;;8.00;82.90;;;;;;4987749;28;20057;-64
2023/10/17 11:18:51;;;;;;;20.35;13.07;;;8.10;83.00;;;;;;4987369;28;19928;-65
2023/10/17 11:21:22;;;;;;;19.40;13.68;;;8.20;82.50;;;;;;4987341;28;20030;-65
2023/10/17 11:23:59;;;;;;;19.73;14.15;;;8.30;82.50;;;;;;4987619;28;20034;-65
2023/10/17 11:26:32;;;;;;;19.92;14.18;;;8.30;82.60;;;;;;4987582;28;20485;-64
2023/10/17 11:28:58;;;;;;;20.80;14.40;;;8.40;82.60;;;;;;4987147;28;20031;-64
2023/10/17 11:31:24;;;;;;;19.38;15.02;;;8.50;82.50;;;;;;4987637;28;20477;-65
2023/10/17 11:33:54;;;;;;;21.35;15.52;;;8.50;82.20;;;;;;4987541;28;20150;-64
2023/10/17 11:36:21;;;;;;;19.02;13.85;;;8.60;82.00;;;;;;4987674;28;20030;-65
2023/10/17 11:38:58;;;;;;;18.27;13.70;;;8.60;81.90;;;;;;4987237;28;20069;-64
2023/10/17 11:41:31;;;;;;;18.00;13.43;;;8.70;82.00;;;;;;4987421;28;20534;-64
2023/10/17 11:44:06;;;;;;;19.05;13.73;;;8.70;81.80;;;;;;4987011;28;20604;-64
2023/10/17 11:46:33;;;;;;;16.50;12.55;;;8.80;81.80;;;;;;4987151;28;20160;-64
2023/10/17 11:49:26;;;;;;;17.20;13.13;;;8.80;81.70;;;;;;4987004;28;20601;-65
2023/10/17 11:52:10;;;;;;;19.60;14.15;;;8.90;81.70;;;;;;4987504;28;20642;-64
2023/10/17 11:55:03;;;;;;;19.88;14.02;;;9.00;81.50;;;;;;4986700;28;20042;-65
2023/10/17 11:57:29;;;;;;;21.05;14.00;;;9.00;81.50;;;;;;4987461;28;20089;-65
2023/10/17 11:59:55;;;;;;;19.65;14.45;;;9.00;81.40;;;;;;4986271;28;20038;-64
2023/10/17 12:02:21;;;;;;;17.25;12.95;;;9.10;81.20;;;;;;4987031;28;20022;-64
2023/10/17 12:04:46;;;;;;;17.90;13.50;;;9.20;81.00;;;;;;4986532;28;20035;-65
2023/10/17 12:07:12;;;;;;;22.05;13.93;;;9.20;81.00;;;;;;4987475;28;20030;-65
2023/10/17 12:09:38;;;;;;;18.17;13.52;;;9.20;81.00;;;;;;4987357;28;20065;-64
2023/10/17 12:12:03;;;;;;;18.77;13.68;;;9.20;80.90;;;;;;4985505;28;20437;-64
2023/10/17 12:14:29;;;;;;;17.52;13.82;;;9.30;81.00;;;;;;4986489;28;20035;-64
2023/10/17 12:16:55;;;;;;;20.58;14.32;;;9.30;80.90;;;;;;4987495;28;20414;-65
2023/10/17 12:19:22;;;;;;;19.55;14.25;;;9.40;80.80;;;;;;4986903;28;20023;-65
2023/10/17 12:21:48;;;;;;;19.75;14.13;;;9.40;80.90;;;;;;4987707;28;20125;-64
2023/10/17 12:24:20;;;;;;;21.02;14.43;;;9.50;81.20;;;;;;4986760;28;20393;-64
2023/10/17 12:26:49;;;;;;;20.40;14.25;;;9.50;81.20;;;;;;4987219;28;20409;-64
2023/10/17 12:29:16;;;;;;;21.02;14.50;;;9.60;81.00;;;;;;4990594;28;20038;-65
2023/10/17 12:31:42;;;;;;;18.00;14.23;;;9.60;81.00;;;;;;4990279;28;20042;-65
2023/10/17 12:34:08;;;;;;;21.73;14.13;;;9.70;81.00;;;;;;4990269;28;20034;-64
2023/10/17 12:36:35;;;;;;;17.23;13.18;;;9.80;80.80;;;;;;4990285;28;21048;-65
2023/10/17 12:39:02;;;;;;;17.55;13.30;;;9.90;80.60;;;;;;4989970;28;20053;-64
2023/10/17 12:41:29;;;;;;;19.33;13.73;;;9.90;80.30;;;;;;4990345;28;20038;-65
2023/10/17 12:43:55;;;;;;;20.23;13.63;;;10.00;80.10;;;;;;4990247;28;20034;-65
2023/10/17 12:46:21;;;;;;;19.58;14.52;;;10.00;79.90;;;;;;4989863;28;20422;-64
2023/10/17 12:48:47;;;;;;;18.00;13.80;;;10.00;79.80;;;;;;4990486;28;20627;-65
2023/10/17 12:51:12;;;;;;;18.10;13.63;;;10.10;79.80;;;;;;4990022;28;20633;-65
2023/10/17 12:53:38;;;;;;;19.75;14.20;;;10.10;79.80;;;;;;4990031;28;20038;-64
2023/10/17 12:56:05;;;;;;;20.77;14.70;;;10.10;79.80;;;;;;4990242;28;20515;-65
2023/10/17 12:58:36;;;;;;;19.98;14.68;;;10.10;79.80;;;;;;4989394;28;20042;-65
2023/10/17 13:01:04;;;;;;;21.77;15.20;;;10.20;79.70;;;;;;4988822;28;20057;-64
2023/10/17 13:03:33;;;;;;;23.58;16.85;;;10.20;79.60;;;;;;4990135;28;20038;-64
2023/10/17 13:05:59;;;;;;;20.90;15.45;;;10.30;79.50;;;;;;4989837;28;20040;-65
2023/10/17 13:08:24;;;;;;;25.67;15.93;;;10.30;79.40;;;;;;4989899;28;20406;-65
2023/10/17 13:10:54;;;;;;;20.00;15.48;;;10.30;79.50;;;;;;4985690;28;20042;-65
2023/10/17 13:13:19;;;;;;;22.60;15.10;;;10.40;79.40;;;;;;4989453;28;20031;-65
2023/10/17 13:15:45;;;;;;;21.77;16.17;;;10.40;79.30;;;;;;4989949;28;20038;-65
2023/10/17 13:18:12;;;;;;;20.23;15.25;;;10.40;79.10;;;;;;4989541;28;20042;-65
2023/10/17 13:20:38;;;;;;;18.65;14.93;;;10.40;79.10;;;;;;4988971;28;20136;-65
2023/10/17 13:23:04;;;;;;;22.65;16.08;;;10.40;79.10;;;;;;4990023;28;20057;-64
2023/10/17 13:25:38;;;;;;;21.20;15.55;;;10.50;79.10;;;;;;4989347;28;20080;-65
2023/10/17 13:28:04;;;;;;;21.00;15.40;;;10.50;78.90;;;;;;4989231;28;20301;-65
2023/10/17 13:30:31;;;;;;;20.45;15.07;;;10.60;78.90;;;;;;4989251;28;20049;-65
2023/10/17 13:32:57;;;;;;;22.35;16.02;;;10.50;78.70;;;;;;4988079;28;20034;-64
2023/10/17 13:35:23;;;;;;;21.52;14.52;;;10.60;78.80;;;;;;4988902;28;20080;-65
2023/10/17 13:37:52;;;;;;;18.45;14.57;;;10.80;78.90;;;;;;4989144;28;20031;-65
2023/10/17 13:40:19;;;;;;;23.35;14.68;;;10.60;78.70;;;;;;4988086;28;20077;-65
2023/10/17 13:42:46;;;;;;;20.45;14.50;;;10.70;78.70;;;;;;4988337;28;20114;-65
2023/10/17 13:45:13;;;;;;;19.02;13.90;;;10.70;78.40;;;;;;4987684;28;20026;-65
2023/10/17 13:47:40;;;;;;;20.00;14.52;;;10.70;78.50;;;;;;4989355;28;20254;-65
2023/10/17 13:50:07;;;;;;;20.92;15.10;;;10.70;78.40;;;;;;4989023;28;20038;-65
2023/10/17 13:52:32;;;;;;;20.00;14.75;;;10.70;78.40;;;;;;4988732;28;20113;-65
2023/10/17 13:54:58;;;;;;;19.92;14.98;;;10.70;78.20;;;;;;4989160;28;20109;-65
2023/10/17 13:57:29;;;;;;;21.85;14.05;;;10.60;78.00;;;;;;4989330;28;20057;-65
2023/10/17 13:59:55;;;;;;;21.45;14.82;;;10.60;78.20;;;;;;4988109;28;20026;-65
2023/10/17 14:02:21;;;;;;;18.10;14.00;;;10.60;77.80;;;;;;4988731;28;20034;-65
2023/10/17 14:04:47;;;;;;;19.20;14.00;;;10.60;77.90;;;;;;4988732;28;20171;-65
2023/10/17 14:07:14;;;;;;;20.40;14.85;;;10.50;78.90;;;;;;4988690;28;20503;-65
2023/10/17 14:09:39;;;;;;;21.67;14.68;;;10.40;78.20;;;;;;4988644;28;20467;-65
2023/10/17 14:12:08;;;;;;;20.45;14.70;;;10.50;78.40;;;;;;4987546;28;20114;-65
2023/10/17 14:14:35;;;;;;;20.20;14.57;;;10.50;78.60;;;;;;4988104;28;20095;-65
2023/10/17 14:17:01;;;;;;;20.27;14.63;;;10.50;78.90;;;;;;4988256;28;20038;-65
2023/10/17 14:24:50;;;;;;;21.00;15.00;;;10.50;79.50;;;;;;4988292;28;20046;-65
2023/10/17 14:27:24;;;;;;;19.20;14.43;;;10.60;79.70;;;;;;4988823;28;20067;-65
2023/10/17 14:29:51;;;;;;;18.65;14.45;;;10.70;79.40;;;;;;4988531;28;20645;-65
2023/10/17 14:32:23;;;;;;;22.38;15.32;;;10.70;79.40;;;;;;4987820;28;20042;-64
2023/10/17 14:34:49;;;;;;;19.98;14.82;;;10.80;79.50;;;;;;4987667;28;20038;-64
2023/10/17 14:37:15;;;;;;;21.65;14.93;;;10.80;80.40;;;;;;4987922;28;20049;-65
2023/10/17 14:39:42;;;;;;;22.35;14.88;;;10.90;79.40;;;;;;4988223;28;20019;-65
2023/10/17 14:42:10;;;;;;;21.27;15.57;;;10.90;79.10;;;;;;4987930;28;20031;-65
2023/10/17 14:44:36;;;;;;;20.20;15.00;;;11.00;78.80;;;;;;4987602;28;20031;-65
2023/10/17 14:47:02;;;;;;;22.52;15.68;;;11.00;78.60;;;;;;4988270;28;20026;-65
2023/10/17 14:49:28;;;;;;;18.80;14.05;;;11.10;78.60;;;;;;4988028;28;20041;-65
2023/10/17 14:51:53;;;;;;;18.10;14.13;;;11.10;78.40;;;;;;4987096;28;20035;-65
2023/10/17 14:54:23;;;;;;;19.00;14.27;;;11.10;78.50;;;;;;4987247;28;20034;-65
2023/10/17 14:56:50;;;;;;;18.52;14.43;;;11.20;78.40;;;;;;4987257;28;20034;-65
2023/10/17 14:59:19;;;;;;;20.77;14.85;;;11.20;78.10;;;;;;4987647;28;21011;-65
2023/10/17 15:01:45;;;;;;;17.00;12.88;;;11.30;78.00;;;;;;4986948;28;20116;-65
2023/10/17 15:04:11;;;;;;;16.55;13.13;;;11.20;77.90;;;;;;4987948;28;20506;-65
2023/10/17 15:06:37;;;;;;;17.25;13.02;;;11.30;77.80;;;;;;4987075;28;20145;-65
2023/10/17 15:09:06;;;;;;;14.75;12.10;;;11.30;77.70;;;;;;4987636;28;20105;-65
2023/10/17 15:11:35;;;;;;;16.77;12.75;;;11.30;77.60;;;;;;4984672;28;20630;-65
2023/10/17 15:14:01;;;;;;;15.95;12.45;;;11.40;77.70;;;;;;4987712;28;20506;-65